sensor_id;sensor_type;location;lat;lon;timestamp;pressure;altitude;pressure_sealevel;temperature
49154;BMP280;49455;52.252;9.124;2023-06-22T00:04:52;100005.97;;;19.46
49154;BMP280;49455;52.252;9.124;2023-06-22T00:09:52;99998.41;;;19.32
49154;BMP280;49455;52.252;9.124;2023-06-22T00:14:52;100006.69;;;19.13
49154;BMP280;49455;52.252;9.124;2023-06-22T00:19:53;99995.34;;;19.20
49154;BMP280;49455;52.252;9.124;2023-06-22T00:24:55;99991.44;;;19.12
49154;BMP280;49455;52.252;9.124;2023-06-22T00:29:55;99985.97;;;18.94
49154;BMP280;49455;52.252;9.124;2023-06-22T00:34:56;99980.97;;;18.83
49154;BMP280;49455;52.252;9.124;2023-06-22T00:39:57;99975.78;;;18.94
49154;BMP280;49455;52.252;9.124;2023-06-22T00:44:57;99967.59;;;18.58
49154;BMP280;49455;52.252;9.124;2023-06-22T00:49:58;99958.41;;;18.70
49154;BMP280;49455;52.252;9.124;2023-06-22T00:54:59;99958.59;;;18.48
49154;BMP280;49455;52.252;9.124;2023-06-22T01:00:00;99959.97;;;18.43
49154;BMP280;49455;52.252;9.124;2023-06-22T01:05:01;99956.91;;;18.41
49154;BMP280;49455;52.252;9.124;2023-06-22T01:10:21;99946.72;;;18.42
49154;BMP280;49455;52.252;9.124;2023-06-22T01:15:28;99928.88;;;18.46
49154;BMP280;49455;52.252;9.124;2023-06-22T01:20:34;99946.13;;;18.38
49154;BMP280;49455;52.252;9.124;2023-06-22T01:25:47;99952.50;;;18.25
49154;BMP280;49455;52.252;9.124;2023-06-22T01:30:49;99945.34;;;18.19
49154;BMP280;49455;52.252;9.124;2023-06-22T01:35:49;99934.53;;;18.34
49154;BMP280;49455;52.252;9.124;2023-06-22T01:40:50;99923.56;;;18.24
49154;BMP280;49455;52.252;9.124;2023-06-22T01:45:51;99934.84;;;18.17
49154;BMP280;49455;52.252;9.124;2023-06-22T01:50:53;99935.13;;;18.19
49154;BMP280;49455;52.252;9.124;2023-06-22T01:55:54;99934.66;;;18.12
49154;BMP280;49455;52.252;9.124;2023-06-22T02:01:15;99953.13;;;18.02
49154;BMP280;49455;52.252;9.124;2023-06-22T02:06:25;99950.63;;;17.95
49154;BMP280;49455;52.252;9.124;2023-06-22T02:11:28;99944.41;;;18.03
49154;BMP280;49455;52.252;9.124;2023-06-22T02:16:31;99947.75;;;18.08
49154;BMP280;49455;52.252;9.124;2023-06-22T02:21:32;99947.75;;;17.98
49154;BMP280;49455;52.252;9.124;2023-06-22T02:26:32;99943.03;;;17.90
49154;BMP280;49455;52.252;9.124;2023-06-22T02:31:34;99953.22;;;17.98
49154;BMP280;49455;52.252;9.124;2023-06-22T02:36:35;99962.19;;;17.90
49154;BMP280;49455;52.252;9.124;2023-06-22T02:41:35;99955.47;;;17.72
49154;BMP280;49455;52.252;9.124;2023-06-22T02:46:36;99963.38;;;17.70
49154;BMP280;49455;52.252;9.124;2023-06-22T02:51:39;99970.88;;;17.48
49154;BMP280;49455;52.252;9.124;2023-06-22T02:56:41;99967.13;;;17.54
49154;BMP280;49455;52.252;9.124;2023-06-22T03:01:41;99971.06;;;17.53
49154;BMP280;49455;52.252;9.124;2023-06-22T03:06:53;99965.88;;;17.46
49154;BMP280;49455;52.252;9.124;2023-06-22T03:11:54;99956.22;;;17.32
49154;BMP280;49455;52.252;9.124;2023-06-22T03:16:56;99967.41;;;17.47
49154;BMP280;49455;52.252;9.124;2023-06-22T03:21:59;99973.78;;;17.53
49154;BMP280;49455;52.252;9.124;2023-06-22T03:27:00;99962.28;;;17.68
49154;BMP280;49455;52.252;9.124;2023-06-22T03:32:00;99955.53;;;17.50
49154;BMP280;49455;52.252;9.124;2023-06-22T03:37:01;99951.50;;;17.73
49154;BMP280;49455;52.252;9.124;2023-06-22T03:42:02;99952.44;;;17.79
49154;BMP280;49455;52.252;9.124;2023-06-22T03:47:04;99949.88;;;17.85
49154;BMP280;49455;52.252;9.124;2023-06-22T03:52:04;99953.22;;;17.98
49154;BMP280;49455;52.252;9.124;2023-06-22T03:57:05;99952.03;;;18.09
49154;BMP280;49455;52.252;9.124;2023-06-22T04:02:05;99958.47;;;18.33
49154;BMP280;49455;52.252;9.124;2023-06-22T04:07:06;99964.38;;;18.50
49154;BMP280;49455;52.252;9.124;2023-06-22T04:12:06;99967.44;;;18.52
49154;BMP280;49455;52.252;9.124;2023-06-22T04:17:07;99968.94;;;18.71
49154;BMP280;49455;52.252;9.124;2023-06-22T04:22:08;99965.16;;;19.20
49154;BMP280;49455;52.252;9.124;2023-06-22T04:27:08;99964.63;;;18.98
49154;BMP280;49455;52.252;9.124;2023-06-22T04:32:08;99965.84;;;18.97
49154;BMP280;49455;52.252;9.124;2023-06-22T04:37:09;99974.56;;;18.95
49154;BMP280;49455;52.252;9.124;2023-06-22T04:42:09;99965.13;;;18.96
49154;BMP280;49455;52.252;9.124;2023-06-22T04:47:10;99955.34;;;18.95
49154;BMP280;49455;52.252;9.124;2023-06-22T04:52:12;99954.06;;;19.15
49154;BMP280;49455;52.252;9.124;2023-06-22T04:57:13;99961.50;;;19.23
49154;BMP280;49455;52.252;9.124;2023-06-22T05:02:14;99934.41;;;19.40
49154;BMP280;49455;52.252;9.124;2023-06-22T05:07:14;99937.13;;;19.49
49154;BMP280;49455;52.252;9.124;2023-06-22T05:12:15;99944.47;;;19.43
49154;BMP280;49455;52.252;9.124;2023-06-22T05:17:15;99947.56;;;19.36
49154;BMP280;49455;52.252;9.124;2023-06-22T05:22:15;99939.00;;;19.34
49154;BMP280;49455;52.252;9.124;2023-06-22T05:27:16;99936.53;;;19.45
49154;BMP280;49455;52.252;9.124;2023-06-22T05:32:16;99949.41;;;19.63
49154;BMP280;49455;52.252;9.124;2023-06-22T05:37:17;99938.81;;;19.71
49154;BMP280;49455;52.252;9.124;2023-06-22T05:42:17;99946.28;;;19.94
49154;BMP280;49455;52.252;9.124;2023-06-22T05:47:17;99943.81;;;19.96
49154;BMP280;49455;52.252;9.124;2023-06-22T05:52:18;99951.25;;;20.05
49154;BMP280;49455;52.252;9.124;2023-06-22T05:57:18;99945.91;;;20.25
49154;BMP280;49455;52.252;9.124;2023-06-22T06:02:19;99949.38;;;20.50
49154;BMP280;49455;52.252;9.124;2023-06-22T06:07:19;99937.56;;;20.49
49154;BMP280;49455;52.252;9.124;2023-06-22T06:12:20;99930.75;;;20.74
49154;BMP280;49455;52.252;9.124;2023-06-22T06:17:20;99931.59;;;20.66
49154;BMP280;49455;52.252;9.124;2023-06-22T06:22:20;99928.34;;;20.82
49154;BMP280;49455;52.252;9.124;2023-06-22T06:27:21;99922.53;;;21.10
49154;BMP280;49455;52.252;9.124;2023-06-22T06:32:21;99919.06;;;21.50
49154;BMP280;49455;52.252;9.124;2023-06-22T06:37:22;99923.81;;;21.70
49154;BMP280;49455;52.252;9.124;2023-06-22T06:42:23;99918.66;;;21.57
49154;BMP280;49455;52.252;9.124;2023-06-22T06:47:24;99926.50;;;21.84
49154;BMP280;49455;52.252;9.124;2023-06-22T06:52:24;99933.28;;;22.30
49154;BMP280;49455;52.252;9.124;2023-06-22T06:57:24;99934.88;;;22.42
49154;BMP280;49455;52.252;9.124;2023-06-22T07:02:26;99934.84;;;22.68
49154;BMP280;49455;52.252;9.124;2023-06-22T07:07:26;99925.41;;;22.80
49154;BMP280;49455;52.252;9.124;2023-06-22T07:12:26;99922.72;;;22.97
49154;BMP280;49455;52.252;9.124;2023-06-22T07:17:27;99912.44;;;23.46
49154;BMP280;49455;52.252;9.124;2023-06-22T07:22:27;99925.13;;;23.75
49154;BMP280;49455;52.252;9.124;2023-06-22T07:27:28;99921.53;;;23.63
49154;BMP280;49455;52.252;9.124;2023-06-22T07:32:28;99921.13;;;23.99
49154;BMP280;49455;52.252;9.124;2023-06-22T07:37:28;99926.13;;;23.83
49154;BMP280;49455;52.252;9.124;2023-06-22T07:42:29;99924.84;;;23.67
49154;BMP280;49455;52.252;9.124;2023-06-22T07:47:29;99923.66;;;23.26
49154;BMP280;49455;52.252;9.124;2023-06-22T07:52:30;99927.06;;;23.63
49154;BMP280;49455;52.252;9.124;2023-06-22T07:57:31;99941.25;;;23.93
49154;BMP280;49455;52.252;9.124;2023-06-22T08:02:31;99935.72;;;23.93
49154;BMP280;49455;52.252;9.124;2023-06-22T08:07:32;99925.91;;;23.98
49154;BMP280;49455;52.252;9.124;2023-06-22T08:12:32;99928.81;;;23.61
49154;BMP280;49455;52.252;9.124;2023-06-22T08:17:33;99918.88;;;23.97
49154;BMP280;49455;52.252;9.124;2023-06-22T08:22:33;99921.91;;;24.05
49154;BMP280;49455;52.252;9.124;2023-06-22T08:27:34;99910.56;;;23.86
49154;BMP280;49455;52.252;9.124;2023-06-22T08:32:34;99904.78;;;23.95
49154;BMP280;49455;52.252;9.124;2023-06-22T08:37:35;99901.56;;;24.19
49154;BMP280;49455;52.252;9.124;2023-06-22T08:42:37;99905.03;;;24.31
49154;BMP280;49455;52.252;9.124;2023-06-22T08:47:38;99908.06;;;24.05
49154;BMP280;49455;52.252;9.124;2023-06-22T08:52:40;99907.84;;;24.36
49154;BMP280;49455;52.252;9.124;2023-06-22T08:57:40;99887.16;;;24.65
49154;BMP280;49455;52.252;9.124;2023-06-22T09:02:40;99885.16;;;24.38
49154;BMP280;49455;52.252;9.124;2023-06-22T09:07:41;99874.78;;;24.66
49154;BMP280;49455;52.252;9.124;2023-06-22T09:12:41;99878.28;;;24.84
49154;BMP280;49455;52.252;9.124;2023-06-22T09:17:42;99876.84;;;24.60
49154;BMP280;49455;52.252;9.124;2023-06-22T09:22:42;99887.09;;;24.88
49154;BMP280;49455;52.252;9.124;2023-06-22T09:27:43;99883.13;;;25.41
49154;BMP280;49455;52.252;9.124;2023-06-22T09:32:43;99885.56;;;25.56
49154;BMP280;49455;52.252;9.124;2023-06-22T09:37:43;99873.88;;;25.69
49154;BMP280;49455;52.252;9.124;2023-06-22T09:42:44;99856.25;;;25.66
49154;BMP280;49455;52.252;9.124;2023-06-22T09:47:44;99853.72;;;25.63
49154;BMP280;49455;52.252;9.124;2023-06-22T09:52:44;99844.88;;;26.00
49154;BMP280;49455;52.252;9.124;2023-06-22T09:57:45;99847.38;;;26.28
49154;BMP280;49455;52.252;9.124;2023-06-22T10:02:46;99845.91;;;26.27
49154;BMP280;49455;52.252;9.124;2023-06-22T10:07:46;99842.16;;;26.49
49154;BMP280;49455;52.252;9.124;2023-06-22T10:12:55;99838.69;;;26.37
49154;BMP280;49455;52.252;9.124;2023-06-22T10:17:55;99836.47;;;26.79
49154;BMP280;49455;52.252;9.124;2023-06-22T10:22:56;99836.78;;;26.94
49154;BMP280;49455;52.252;9.124;2023-06-22T10:27:56;99837.91;;;26.85
49154;BMP280;49455;52.252;9.124;2023-06-22T10:32:57;99831.72;;;26.74
49154;BMP280;49455;52.252;9.124;2023-06-22T10:37:57;99823.47;;;26.87
49154;BMP280;49455;52.252;9.124;2023-06-22T10:42:58;99807.56;;;26.87
49154;BMP280;49455;52.252;9.124;2023-06-22T10:47:58;99810.97;;;27.50
49154;BMP280;49455;52.252;9.124;2023-06-22T10:52:59;99806.25;;;27.90
49154;BMP280;49455;52.252;9.124;2023-06-22T10:57:59;99806.72;;;27.75
49154;BMP280;49455;52.252;9.124;2023-06-22T11:03:00;99808.38;;;27.84
49154;BMP280;49455;52.252;9.124;2023-06-22T11:08:00;99806.56;;;27.87
49154;BMP280;49455;52.252;9.124;2023-06-22T11:13:00;99805.59;;;27.84
49154;BMP280;49455;52.252;9.124;2023-06-22T11:18:01;99803.94;;;28.81
49154;BMP280;49455;52.252;9.124;2023-06-22T11:23:01;99796.69;;;29.20
49154;BMP280;49455;52.252;9.124;2023-06-22T11:28:02;99769.38;;;29.96
49154;BMP280;49455;52.252;9.124;2023-06-22T11:33:03;99760.69;;;28.88
49154;BMP280;49455;52.252;9.124;2023-06-22T11:38:03;99756.59;;;28.68
49154;BMP280;49455;52.252;9.124;2023-06-22T11:43:04;99743.75;;;29.77
49154;BMP280;49455;52.252;9.124;2023-06-22T11:48:04;99738.03;;;28.57
49154;BMP280;49455;52.252;9.124;2023-06-22T11:53:05;99723.84;;;28.35
49154;BMP280;49455;52.252;9.124;2023-06-22T11:58:05;99719.94;;;28.51
49154;BMP280;49455;52.252;9.124;2023-06-22T12:03:06;99722.53;;;28.36
49154;BMP280;49455;52.252;9.124;2023-06-22T12:08:06;99720.72;;;29.56
49154;BMP280;49455;52.252;9.124;2023-06-22T12:13:06;99712.53;;;29.94
49154;BMP280;49455;52.252;9.124;2023-06-22T12:18:07;99700.22;;;29.82
49154;BMP280;49455;52.252;9.124;2023-06-22T12:23:07;99686.75;;;29.73
49154;BMP280;49455;52.252;9.124;2023-06-22T12:28:08;99693.81;;;29.17
49154;BMP280;49455;52.252;9.124;2023-06-22T12:33:08;99678.84;;;29.06
49154;BMP280;49455;52.252;9.124;2023-06-22T12:38:09;99667.13;;;29.08
49154;BMP280;49455;52.252;9.124;2023-06-22T12:43:09;99680.75;;;28.91
49154;BMP280;49455;52.252;9.124;2023-06-22T12:48:09;99688.13;;;28.46
49154;BMP280;49455;52.252;9.124;2023-06-22T12:53:12;99684.66;;;27.66
49154;BMP280;49455;52.252;9.124;2023-06-22T12:58:13;99697.81;;;27.39
49154;BMP280;49455;52.252;9.124;2023-06-22T13:03:13;99695.72;;;27.27
49154;BMP280;49455;52.252;9.124;2023-06-22T13:08:13;99697.31;;;26.90
49154;BMP280;49455;52.252;9.124;2023-06-22T13:13:14;99698.59;;;26.89
49154;BMP280;49455;52.252;9.124;2023-06-22T13:18:14;99689.53;;;26.70
49154;BMP280;49455;52.252;9.124;2023-06-22T13:23:15;99689.09;;;26.47
49154;BMP280;49455;52.252;9.124;2023-06-22T13:28:15;99693.19;;;26.21
49154;BMP280;49455;52.252;9.124;2023-06-22T13:33:16;99687.81;;;26.04
49154;BMP280;49455;52.252;9.124;2023-06-22T13:38:16;99676.00;;;25.79
49154;BMP280;49455;52.252;9.124;2023-06-22T13:43:17;99659.59;;;25.51
49154;BMP280;49455;52.252;9.124;2023-06-22T13:48:20;99619.91;;;25.08
49154;BMP280;49455;52.252;9.124;2023-06-22T13:53:20;99604.84;;;25.27
49154;BMP280;49455;52.252;9.124;2023-06-22T13:58:21;99600.72;;;25.10
49154;BMP280;49455;52.252;9.124;2023-06-22T14:03:21;99580.16;;;24.99
49154;BMP280;49455;52.252;9.124;2023-06-22T14:08:22;99622.56;;;24.89
49154;BMP280;49455;52.252;9.124;2023-06-22T14:13:22;99655.03;;;24.47
49154;BMP280;49455;52.252;9.124;2023-06-22T14:18:22;99676.16;;;24.50
49154;BMP280;49455;52.252;9.124;2023-06-22T14:23:26;99677.22;;;24.36
49154;BMP280;49455;52.252;9.124;2023-06-22T14:28:27;99689.63;;;24.12
49154;BMP280;49455;52.252;9.124;2023-06-22T14:33:27;99681.06;;;24.16
49154;BMP280;49455;52.252;9.124;2023-06-22T14:38:28;99607.50;;;23.51
49154;BMP280;49455;52.252;9.124;2023-06-22T14:43:31;99651.00;;;23.11
49154;BMP280;49455;52.252;9.124;2023-06-22T14:48:32;99651.94;;;23.08
49154;BMP280;49455;52.252;9.124;2023-06-22T14:53:32;99622.75;;;22.68
49154;BMP280;49455;52.252;9.124;2023-06-22T14:58:33;99562.72;;;22.57
49154;BMP280;49455;52.252;9.124;2023-06-22T15:03:34;99546.41;;;22.48
49154;BMP280;49455;52.252;9.124;2023-06-22T15:08:40;99555.63;;;22.34
49154;BMP280;49455;52.252;9.124;2023-06-22T15:13:41;99535.31;;;22.31
49154;BMP280;49455;52.252;9.124;2023-06-22T15:18:41;99546.53;;;22.11
49154;BMP280;49455;52.252;9.124;2023-06-22T15:23:42;99536.56;;;21.71
49154;BMP280;49455;52.252;9.124;2023-06-22T15:28:42;99488.25;;;21.44
49154;BMP280;49455;52.252;9.124;2023-06-22T15:33:43;99422.78;;;21.27
49154;BMP280;49455;52.252;9.124;2023-06-22T15:38:43;99416.56;;;21.27
49154;BMP280;49455;52.252;9.124;2023-06-22T15:43:43;99448.38;;;21.33
49154;BMP280;49455;52.252;9.124;2023-06-22T15:48:44;99451.63;;;21.38
49154;BMP280;49455;52.252;9.124;2023-06-22T15:53:45;99449.94;;;21.46
49154;BMP280;49455;52.252;9.124;2023-06-22T15:58:45;99449.19;;;21.45
49154;BMP280;49455;52.252;9.124;2023-06-22T16:03:45;99415.22;;;21.76
49154;BMP280;49455;52.252;9.124;2023-06-22T16:08:46;99389.19;;;21.77
49154;BMP280;49455;52.252;9.124;2023-06-22T16:13:46;99368.22;;;22.42
49154;BMP280;49455;52.252;9.124;2023-06-22T16:18:47;99351.13;;;22.60
49154;BMP280;49455;52.252;9.124;2023-06-22T16:23:47;99347.88;;;22.56
49154;BMP280;49455;52.252;9.124;2023-06-22T16:28:48;99348.91;;;22.42
49154;BMP280;49455;52.252;9.124;2023-06-22T16:33:48;99334.84;;;22.28
49154;BMP280;49455;52.252;9.124;2023-06-22T16:38:49;99328.31;;;22.03
49154;BMP280;49455;52.252;9.124;2023-06-22T16:43:49;99338.59;;;22.14
49154;BMP280;49455;52.252;9.124;2023-06-22T16:48:50;99353.91;;;22.21
49154;BMP280;49455;52.252;9.124;2023-06-22T16:53:55;99329.06;;;22.09
49154;BMP280;49455;52.252;9.124;2023-06-22T16:58:57;99326.53;;;22.00
49154;BMP280;49455;52.252;9.124;2023-06-22T17:04:07;99343.09;;;21.89
49154;BMP280;49455;52.252;9.124;2023-06-22T17:09:14;99339.09;;;21.96
49154;BMP280;49455;52.252;9.124;2023-06-22T17:14:14;99335.28;;;21.76
49154;BMP280;49455;52.252;9.124;2023-06-22T17:19:15;99340.81;;;21.71
49154;BMP280;49455;52.252;9.124;2023-06-22T17:24:16;99311.94;;;21.60
49154;BMP280;49455;52.252;9.124;2023-06-22T17:29:17;99335.94;;;21.43
49154;BMP280;49455;52.252;9.124;2023-06-22T17:34:17;99371.25;;;21.39
49154;BMP280;49455;52.252;9.124;2023-06-22T17:39:19;99435.38;;;21.34
49154;BMP280;49455;52.252;9.124;2023-06-22T17:44:22;99459.13;;;21.31
49154;BMP280;49455;52.252;9.124;2023-06-22T17:49:28;99407.75;;;21.23
49154;BMP280;49455;52.252;9.124;2023-06-22T17:54:31;99407.41;;;21.15
49154;BMP280;49455;52.252;9.124;2023-06-22T17:59:32;99403.97;;;21.20
49154;BMP280;49455;52.252;9.124;2023-06-22T18:04:32;99393.66;;;21.10
49154;BMP280;49455;52.252;9.124;2023-06-22T18:09:33;99385.28;;;20.98
49154;BMP280;49455;52.252;9.124;2023-06-22T18:14:34;99378.16;;;20.80
49154;BMP280;49455;52.252;9.124;2023-06-22T18:19:37;99399.53;;;20.60
49154;BMP280;49455;52.252;9.124;2023-06-22T18:24:39;99390.75;;;20.55
49154;BMP280;49455;52.252;9.124;2023-06-22T18:29:43;99388.94;;;20.52
49154;BMP280;49455;52.252;9.124;2023-06-22T18:34:44;99393.88;;;20.43
49154;BMP280;49455;52.252;9.124;2023-06-22T18:39:45;99395.13;;;20.42
49154;BMP280;49455;52.252;9.124;2023-06-22T18:44:53;99406.59;;;20.40
49154;BMP280;49455;52.252;9.124;2023-06-22T18:50:04;99382.22;;;20.27
49154;BMP280;49455;52.252;9.124;2023-06-22T18:55:05;99401.91;;;20.46
49154;BMP280;49455;52.252;9.124;2023-06-22T19:00:14;99377.91;;;20.47
49154;BMP280;49455;52.252;9.124;2023-06-22T19:05:36;99338.31;;;20.39
49154;BMP280;49455;52.252;9.124;2023-06-22T19:10:41;99303.97;;;20.28
49154;BMP280;49455;52.252;9.124;2023-06-22T19:15:42;99309.72;;;20.30
49154;BMP280;49455;52.252;9.124;2023-06-22T19:20:52;99319.97;;;20.30
49154;BMP280;49455;52.252;9.124;2023-06-22T19:25:54;99290.66;;;20.21
49154;BMP280;49455;52.252;9.124;2023-06-22T19:30:56;99249.56;;;20.12
49154;BMP280;49455;52.252;9.124;2023-06-22T19:35:59;99243.75;;;20.04
49154;BMP280;49455;52.252;9.124;2023-06-22T19:41:00;99237.94;;;19.97
49154;BMP280;49455;52.252;9.124;2023-06-22T19:46:01;99237.72;;;20.00
49154;BMP280;49455;52.252;9.124;2023-06-22T19:51:06;99243.38;;;19.91
49154;BMP280;49455;52.252;9.124;2023-06-22T19:56:06;99253.13;;;19.87
49154;BMP280;49455;52.252;9.124;2023-06-22T20:01:07;99256.59;;;19.87
49154;BMP280;49455;52.252;9.124;2023-06-22T20:06:17;99247.78;;;19.77
49154;BMP280;49455;52.252;9.124;2023-06-22T20:11:28;99254.38;;;19.65
49154;BMP280;49455;52.252;9.124;2023-06-22T20:16:29;99252.13;;;19.64
49154;BMP280;49455;52.252;9.124;2023-06-22T20:21:31;99232.94;;;19.69
49154;BMP280;49455;52.252;9.124;2023-06-22T20:26:42;99211.53;;;19.73
49154;BMP280;49455;52.252;9.124;2023-06-22T20:31:43;99216.66;;;19.66
49154;BMP280;49455;52.252;9.124;2023-06-22T20:36:43;99213.44;;;19.67
49154;BMP280;49455;52.252;9.124;2023-06-22T20:41:44;99223.91;;;19.63
49154;BMP280;49455;52.252;9.124;2023-06-22T20:46:44;99206.81;;;19.53
49154;BMP280;49455;52.252;9.124;2023-06-22T20:51:45;99206.91;;;19.65
49154;BMP280;49455;52.252;9.124;2023-06-22T20:56:45;99217.69;;;19.68
49154;BMP280;49455;52.252;9.124;2023-06-22T21:01:46;99216.25;;;19.73
49154;BMP280;49455;52.252;9.124;2023-06-22T21:06:46;99204.75;;;19.69
49154;BMP280;49455;52.252;9.124;2023-06-22T21:11:46;99213.75;;;19.75
49154;BMP280;49455;52.252;9.124;2023-06-22T21:16:47;99200.53;;;19.73
49154;BMP280;49455;52.252;9.124;2023-06-22T21:21:47;99216.72;;;19.71
49154;BMP280;49455;52.252;9.124;2023-06-22T21:26:48;99208.66;;;19.62
49154;BMP280;49455;52.252;9.124;2023-06-22T21:31:48;99196.78;;;19.50
49154;BMP280;49455;52.252;9.124;2023-06-22T21:36:51;99213.59;;;19.58
49154;BMP280;49455;52.252;9.124;2023-06-22T21:41:52;99209.06;;;19.55
49154;BMP280;49455;52.252;9.124;2023-06-22T21:46:53;99217.16;;;19.64
49154;BMP280;49455;52.252;9.124;2023-06-22T21:51:53;99221.56;;;19.56
49154;BMP280;49455;52.252;9.124;2023-06-22T21:56:54;99215.38;;;19.61
49154;BMP280;49455;52.252;9.124;2023-06-22T22:01:54;99223.97;;;19.69
49154;BMP280;49455;52.252;9.124;2023-06-22T22:06:54;99251.06;;;19.55
49154;BMP280;49455;52.252;9.124;2023-06-22T22:11:55;99257.28;;;19.56
49154;BMP280;49455;52.252;9.124;2023-06-22T22:16:55;99261.31;;;19.61
49154;BMP280;49455;52.252;9.124;2023-06-22T22:21:56;99256.03;;;19.57
49154;BMP280;49455;52.252;9.124;2023-06-22T22:26:56;99257.97;;;19.51
49154;BMP280;49455;52.252;9.124;2023-06-22T22:31:57;99260.44;;;19.49
49154;BMP280;49455;52.252;9.124;2023-06-22T22:36:57;99261.44;;;19.46
49154;BMP280;49455;52.252;9.124;2023-06-22T22:42:01;99259.38;;;19.41
49154;BMP280;49455;52.252;9.124;2023-06-22T22:47:01;99256.09;;;19.37
49154;BMP280;49455;52.252;9.124;2023-06-22T22:52:02;99243.56;;;19.15
49154;BMP280;49455;52.252;9.124;2023-06-22T22:57:02;99230.34;;;19.14
49154;BMP280;49455;52.252;9.124;2023-06-22T23:02:03;99236.59;;;19.14
49154;BMP280;49455;52.252;9.124;2023-06-22T23:07:04;99214.81;;;19.11
49154;BMP280;49455;52.252;9.124;2023-06-22T23:12:05;99220.88;;;19.15
49154;BMP280;49455;52.252;9.124;2023-06-22T23:17:07;99195.88;;;19.13
49154;BMP280;49455;52.252;9.124;2023-06-22T23:22:07;99194.28;;;19.06
49154;BMP280;49455;52.252;9.124;2023-06-22T23:27:08;99202.41;;;18.95
49154;BMP280;49455;52.252;9.124;2023-06-22T23:32:09;99184.03;;;19.01
49154;BMP280;49455;52.252;9.124;2023-06-22T23:37:09;99162.25;;;18.97
49154;BMP280;49455;52.252;9.124;2023-06-22T23:42:10;99166.28;;;18.96
49154;BMP280;49455;52.252;9.124;2023-06-22T23:47:10;99171.66;;;18.91
49154;BMP280;49455;52.252;9.124;2023-06-22T23:52:11;99180.59;;;18.86
49154;BMP280;49455;52.252;9.124;2023-06-22T23:57:11;99190.31;;;18.66
